Terminal Aerodrome Forecast
Issued by NWS

Current Version | Previous Version | Graphics & Text | Print | Product List | Glossary On
Versions: 1 2 3 4 5 6 7 8 9 10 11 12 13 14 15 16 17 18 19 20 21 22 23 24 25 26
105
FTUS41 KRLX 221431 AAA
TAFCKB
TAF AMD
KCKB 221431Z 2215/2312 33006KT P6SM BKN025
     FM221800 33006KT 5SM SHRA VCTS OVC030CB
     FM222300 01005KT 6SM -SHRA BKN040
     FM230100 VRB03KT 6SM BR BKN040
     FM230800 VRB03KT 5SM BR SCT010=

USA.gov is the U.S. government's official web portal to all federal, state and local government web resources and services.